sensor_id;sensor_type;location;lat;lon;timestamp;P1;durP1;ratioP1;P2;durP2;ratioP2
18778;SDS011;9518;51.720;14.384;2023-06-05T00:02:21;1999.90;;;999.90;;
18778;SDS011;9518;51.720;14.384;2023-06-05T00:04:48;1999.90;;;999.90;;
18778;SDS011;9518;51.720;14.384;2023-06-05T00:07:16;1999.90;;;999.90;;
18778;SDS011;9518;51.720;14.384;2023-06-05T00:09:43;1999.90;;;999.90;;
18778;SDS011;9518;51.720;14.384;2023-06-05T00:12:11;1999.90;;;999.90;;
18778;SDS011;9518;51.720;14.384;2023-06-05T00:14:38;1999.90;;;999.90;;
18778;SDS011;9518;51.720;14.384;2023-06-05T00:17:06;1999.90;;;999.90;;
18778;SDS011;9518;51.720;14.384;2023-06-05T00:19:34;1999.90;;;999.90;;
18778;SDS011;9518;51.720;14.384;2023-06-05T00:22:01;1999.90;;;999.90;;
18778;SDS011;9518;51.720;14.384;2023-06-05T00:24:29;1999.90;;;999.90;;
18778;SDS011;9518;51.720;14.384;2023-06-05T00:26:56;1999.90;;;999.90;;
18778;SDS011;9518;51.720;14.384;2023-06-05T00:29:23;1999.90;;;999.90;;
18778;SDS011;9518;51.720;14.384;2023-06-05T00:31:51;1999.90;;;999.90;;
18778;SDS011;9518;51.720;14.384;2023-06-05T00:34:20;1999.90;;;999.90;;
18778;SDS011;9518;51.720;14.384;2023-06-05T00:36:47;1999.90;;;999.90;;
18778;SDS011;9518;51.720;14.384;2023-06-05T00:39:15;1999.90;;;999.90;;
18778;SDS011;9518;51.720;14.384;2023-06-05T00:41:44;1999.90;;;999.90;;
18778;SDS011;9518;51.720;14.384;2023-06-05T00:44:12;1999.90;;;999.90;;
18778;SDS011;9518;51.720;14.384;2023-06-05T00:46:40;1999.90;;;999.90;;
18778;SDS011;9518;51.720;14.384;2023-06-05T00:49:09;1999.90;;;999.90;;
18778;SDS011;9518;51.720;14.384;2023-06-05T00:51:39;1999.90;;;999.90;;
18778;SDS011;9518;51.720;14.384;2023-06-05T00:54:08;1999.90;;;999.90;;
18778;SDS011;9518;51.720;14.384;2023-06-05T00:56:36;1999.90;;;999.90;;
18778;SDS011;9518;51.720;14.384;2023-06-05T00:59:04;1999.90;;;999.90;;
18778;SDS011;9518;51.720;14.384;2023-06-05T01:01:32;1999.90;;;999.90;;
18778;SDS011;9518;51.720;14.384;2023-06-05T01:04:16;1999.90;;;999.90;;
18778;SDS011;9518;51.720;14.384;2023-06-05T01:06:44;1999.90;;;999.90;;
18778;SDS011;9518;51.720;14.384;2023-06-05T01:09:12;1999.90;;;999.90;;
18778;SDS011;9518;51.720;14.384;2023-06-05T01:11:49;1999.90;;;999.90;;
18778;SDS011;9518;51.720;14.384;2023-06-05T01:14:21;1999.90;;;999.90;;
18778;SDS011;9518;51.720;14.384;2023-06-05T01:16:53;1999.90;;;999.90;;
18778;SDS011;9518;51.720;14.384;2023-06-05T01:19:26;1999.90;;;999.90;;
18778;SDS011;9518;51.720;14.384;2023-06-05T01:21:58;1999.90;;;999.90;;
18778;SDS011;9518;51.720;14.384;2023-06-05T01:24:27;1999.90;;;999.90;;
18778;SDS011;9518;51.720;14.384;2023-06-05T01:26:58;1999.90;;;999.90;;
18778;SDS011;9518;51.720;14.384;2023-06-05T01:29:34;1999.90;;;999.90;;
18778;SDS011;9518;51.720;14.384;2023-06-05T01:32:07;1999.90;;;999.90;;
18778;SDS011;9518;51.720;14.384;2023-06-05T01:34:41;1999.90;;;999.90;;
18778;SDS011;9518;51.720;14.384;2023-06-05T01:37:10;1999.90;;;999.90;;
18778;SDS011;9518;51.720;14.384;2023-06-05T01:39:41;1999.90;;;999.90;;
18778;SDS011;9518;51.720;14.384;2023-06-05T01:42:11;1999.90;;;999.90;;
18778;SDS011;9518;51.720;14.384;2023-06-05T01:44:41;1999.90;;;999.90;;
18778;SDS011;9518;51.720;14.384;2023-06-05T01:47:10;1999.90;;;999.90;;
18778;SDS011;9518;51.720;14.384;2023-06-05T01:49:38;1999.90;;;999.90;;
18778;SDS011;9518;51.720;14.384;2023-06-05T01:52:05;1999.90;;;999.90;;
18778;SDS011;9518;51.720;14.384;2023-06-05T01:54:33;1999.90;;;999.90;;
18778;SDS011;9518;51.720;14.384;2023-06-05T01:57:02;1999.90;;;999.90;;
18778;SDS011;9518;51.720;14.384;2023-06-05T01:59:29;1999.90;;;999.90;;
18778;SDS011;9518;51.720;14.384;2023-06-05T02:01:57;1999.90;;;999.90;;
18778;SDS011;9518;51.720;14.384;2023-06-05T02:04:24;1999.90;;;999.90;;
18778;SDS011;9518;51.720;14.384;2023-06-05T02:06:54;1999.90;;;999.90;;
18778;SDS011;9518;51.720;14.384;2023-06-05T02:09:29;1999.90;;;999.90;;
18778;SDS011;9518;51.720;14.384;2023-06-05T02:11:58;1999.90;;;999.90;;
18778;SDS011;9518;51.720;14.384;2023-06-05T02:14:32;1999.90;;;999.90;;
18778;SDS011;9518;51.720;14.384;2023-06-05T02:17:02;1999.90;;;999.90;;
18778;SDS011;9518;51.720;14.384;2023-06-05T02:19:31;1999.90;;;999.90;;
18778;SDS011;9518;51.720;14.384;2023-06-05T02:21:59;1999.90;;;999.90;;
18778;SDS011;9518;51.720;14.384;2023-06-05T02:24:26;1999.90;;;999.90;;
18778;SDS011;9518;51.720;14.384;2023-06-05T02:26:54;1999.90;;;999.90;;
18778;SDS011;9518;51.720;14.384;2023-06-05T02:29:22;1999.90;;;999.90;;
18778;SDS011;9518;51.720;14.384;2023-06-05T02:31:52;1999.90;;;999.90;;
18778;SDS011;9518;51.720;14.384;2023-06-05T02:34:19;1999.90;;;999.90;;
18778;SDS011;9518;51.720;14.384;2023-06-05T02:36:49;1999.90;;;999.90;;
18778;SDS011;9518;51.720;14.384;2023-06-05T02:39:17;1999.90;;;999.90;;
18778;SDS011;9518;51.720;14.384;2023-06-05T02:41:44;1999.90;;;999.90;;
18778;SDS011;9518;51.720;14.384;2023-06-05T02:44:12;1999.90;;;999.90;;
18778;SDS011;9518;51.720;14.384;2023-06-05T02:46:39;1999.90;;;999.90;;
18778;SDS011;9518;51.720;14.384;2023-06-05T02:49:11;1999.90;;;999.90;;
18778;SDS011;9518;51.720;14.384;2023-06-05T02:51:38;1999.90;;;999.90;;
18778;SDS011;9518;51.720;14.384;2023-06-05T02:54:05;1999.90;;;999.90;;
18778;SDS011;9518;51.720;14.384;2023-06-05T02:56:32;1999.90;;;999.90;;
18778;SDS011;9518;51.720;14.384;2023-06-05T02:59:00;1999.90;;;999.90;;
18778;SDS011;9518;51.720;14.384;2023-06-05T03:01:29;1999.90;;;999.90;;
18778;SDS011;9518;51.720;14.384;2023-06-05T03:03:59;1999.90;;;999.90;;
18778;SDS011;9518;51.720;14.384;2023-06-05T03:06:29;1999.90;;;999.90;;
18778;SDS011;9518;51.720;14.384;2023-06-05T03:08:58;1999.90;;;999.90;;
18778;SDS011;9518;51.720;14.384;2023-06-05T03:11:26;1999.90;;;999.90;;
18778;SDS011;9518;51.720;14.384;2023-06-05T03:13:53;1999.90;;;999.90;;
18778;SDS011;9518;51.720;14.384;2023-06-05T03:16:20;1999.90;;;999.90;;
18778;SDS011;9518;51.720;14.384;2023-06-05T03:18:48;1999.90;;;999.90;;
18778;SDS011;9518;51.720;14.384;2023-06-05T03:21:16;1999.90;;;999.90;;
18778;SDS011;9518;51.720;14.384;2023-06-05T03:23:45;1999.90;;;999.90;;
18778;SDS011;9518;51.720;14.384;2023-06-05T03:26:12;1999.90;;;999.90;;
18778;SDS011;9518;51.720;14.384;2023-06-05T03:28:40;1999.90;;;999.90;;
18778;SDS011;9518;51.720;14.384;2023-06-05T03:31:09;1999.90;;;999.90;;
18778;SDS011;9518;51.720;14.384;2023-06-05T03:33:37;1999.90;;;999.90;;
18778;SDS011;9518;51.720;14.384;2023-06-05T03:36:05;1999.90;;;999.90;;
18778;SDS011;9518;51.720;14.384;2023-06-05T03:38:33;1999.90;;;999.90;;
18778;SDS011;9518;51.720;14.384;2023-06-05T03:41:02;1999.90;;;999.90;;
18778;SDS011;9518;51.720;14.384;2023-06-05T03:43:32;1999.90;;;999.90;;
18778;SDS011;9518;51.720;14.384;2023-06-05T03:46:00;1999.90;;;999.90;;
18778;SDS011;9518;51.720;14.384;2023-06-05T03:48:27;1999.90;;;999.90;;
18778;SDS011;9518;51.720;14.384;2023-06-05T03:50:55;1999.90;;;999.90;;
18778;SDS011;9518;51.720;14.384;2023-06-05T03:53:23;1999.90;;;999.90;;
18778;SDS011;9518;51.720;14.384;2023-06-05T03:55:54;1999.90;;;999.90;;
18778;SDS011;9518;51.720;14.384;2023-06-05T03:58:23;1999.90;;;999.90;;
18778;SDS011;9518;51.720;14.384;2023-06-05T04:00:51;1999.90;;;999.90;;
18778;SDS011;9518;51.720;14.384;2023-06-05T04:03:19;1999.90;;;999.90;;
18778;SDS011;9518;51.720;14.384;2023-06-05T04:05:46;1999.90;;;999.90;;
18778;SDS011;9518;51.720;14.384;2023-06-05T04:08:14;1999.90;;;999.90;;
18778;SDS011;9518;51.720;14.384;2023-06-05T04:10:42;1999.90;;;999.90;;
18778;SDS011;9518;51.720;14.384;2023-06-05T04:13:09;1999.90;;;999.90;;
18778;SDS011;9518;51.720;14.384;2023-06-05T04:15:38;1999.90;;;999.90;;
18778;SDS011;9518;51.720;14.384;2023-06-05T04:18:06;1999.90;;;999.90;;
18778;SDS011;9518;51.720;14.384;2023-06-05T04:20:33;1999.90;;;999.90;;
18778;SDS011;9518;51.720;14.384;2023-06-05T04:23:00;1999.90;;;999.90;;
18778;SDS011;9518;51.720;14.384;2023-06-05T04:25:29;1999.90;;;999.90;;
18778;SDS011;9518;51.720;14.384;2023-06-05T04:27:57;1999.90;;;999.90;;
18778;SDS011;9518;51.720;14.384;2023-06-05T04:30:24;1999.90;;;999.90;;
18778;SDS011;9518;51.720;14.384;2023-06-05T04:32:56;1999.90;;;999.90;;
18778;SDS011;9518;51.720;14.384;2023-06-05T04:35:24;1999.90;;;999.90;;
18778;SDS011;9518;51.720;14.384;2023-06-05T04:37:52;1999.90;;;999.90;;
18778;SDS011;9518;51.720;14.384;2023-06-05T04:40:19;1999.90;;;999.90;;
18778;SDS011;9518;51.720;14.384;2023-06-05T04:42:47;1999.90;;;999.90;;
18778;SDS011;9518;51.720;14.384;2023-06-05T04:45:14;1999.90;;;999.90;;
18778;SDS011;9518;51.720;14.384;2023-06-05T04:47:42;1999.90;;;999.90;;
18778;SDS011;9518;51.720;14.384;2023-06-05T04:50:22;1999.90;;;999.90;;
18778;SDS011;9518;51.720;14.384;2023-06-05T04:52:51;1999.90;;;999.90;;
18778;SDS011;9518;51.720;14.384;2023-06-05T04:55:19;1999.90;;;999.90;;
18778;SDS011;9518;51.720;14.384;2023-06-05T04:57:48;1999.90;;;999.90;;
18778;SDS011;9518;51.720;14.384;2023-06-05T05:00:16;1999.90;;;999.90;;
18778;SDS011;9518;51.720;14.384;2023-06-05T05:02:44;1999.90;;;999.90;;
18778;SDS011;9518;51.720;14.384;2023-06-05T05:05:12;1999.90;;;999.90;;
18778;SDS011;9518;51.720;14.384;2023-06-05T05:07:42;1999.90;;;999.90;;
18778;SDS011;9518;51.720;14.384;2023-06-05T05:10:10;1999.90;;;999.90;;
18778;SDS011;9518;51.720;14.384;2023-06-05T05:12:37;1999.90;;;999.90;;
18778;SDS011;9518;51.720;14.384;2023-06-05T05:15:05;1999.90;;;999.90;;
18778;SDS011;9518;51.720;14.384;2023-06-05T05:17:37;1999.90;;;999.90;;
18778;SDS011;9518;51.720;14.384;2023-06-05T05:20:06;1999.90;;;999.90;;
18778;SDS011;9518;51.720;14.384;2023-06-05T05:22:35;1999.90;;;999.90;;
18778;SDS011;9518;51.720;14.384;2023-06-05T05:25:06;1999.90;;;999.90;;
18778;SDS011;9518;51.720;14.384;2023-06-05T05:27:34;1999.90;;;999.90;;
18778;SDS011;9518;51.720;14.384;2023-06-05T05:30:06;1999.90;;;999.90;;
18778;SDS011;9518;51.720;14.384;2023-06-05T05:32:34;1999.90;;;999.90;;
18778;SDS011;9518;51.720;14.384;2023-06-05T05:35:02;1999.90;;;999.90;;
18778;SDS011;9518;51.720;14.384;2023-06-05T05:37:32;1999.90;;;999.90;;
18778;SDS011;9518;51.720;14.384;2023-06-05T05:39:59;1999.90;;;999.90;;
18778;SDS011;9518;51.720;14.384;2023-06-05T05:42:32;1999.90;;;999.90;;
18778;SDS011;9518;51.720;14.384;2023-06-05T05:45:02;1999.90;;;999.90;;
18778;SDS011;9518;51.720;14.384;2023-06-05T05:47:30;1999.90;;;999.90;;
18778;SDS011;9518;51.720;14.384;2023-06-05T05:49:57;1999.90;;;999.90;;
18778;SDS011;9518;51.720;14.384;2023-06-05T05:52:26;1999.90;;;999.90;;
18778;SDS011;9518;51.720;14.384;2023-06-05T05:54:53;1999.90;;;999.90;;
18778;SDS011;9518;51.720;14.384;2023-06-05T05:57:24;1999.90;;;999.90;;
18778;SDS011;9518;51.720;14.384;2023-06-05T05:59:56;1999.90;;;999.90;;
18778;SDS011;9518;51.720;14.384;2023-06-05T06:02:23;1999.90;;;999.90;;
18778;SDS011;9518;51.720;14.384;2023-06-05T06:04:50;1999.90;;;999.90;;
18778;SDS011;9518;51.720;14.384;2023-06-05T06:07:19;1999.90;;;999.90;;
18778;SDS011;9518;51.720;14.384;2023-06-05T06:09:47;1999.90;;;999.90;;
18778;SDS011;9518;51.720;14.384;2023-06-05T06:12:14;1999.90;;;999.90;;
18778;SDS011;9518;51.720;14.384;2023-06-05T06:14:44;1999.90;;;999.90;;
18778;SDS011;9518;51.720;14.384;2023-06-05T06:17:16;1999.90;;;999.90;;
18778;SDS011;9518;51.720;14.384;2023-06-05T06:19:43;1999.90;;;999.90;;
18778;SDS011;9518;51.720;14.384;2023-06-05T06:22:10;1999.90;;;999.90;;
18778;SDS011;9518;51.720;14.384;2023-06-05T06:24:38;1999.90;;;999.90;;
18778;SDS011;9518;51.720;14.384;2023-06-05T06:27:06;1999.90;;;999.90;;
18778;SDS011;9518;51.720;14.384;2023-06-05T06:29:36;1999.90;;;999.90;;
18778;SDS011;9518;51.720;14.384;2023-06-05T06:32:04;1999.90;;;999.90;;
18778;SDS011;9518;51.720;14.384;2023-06-05T06:34:33;1999.90;;;999.90;;
18778;SDS011;9518;51.720;14.384;2023-06-05T06:37:00;1999.90;;;999.90;;
18778;SDS011;9518;51.720;14.384;2023-06-05T06:39:28;1999.90;;;999.90;;
18778;SDS011;9518;51.720;14.384;2023-06-05T06:41:56;1999.90;;;999.90;;
18778;SDS011;9518;51.720;14.384;2023-06-05T06:44:24;1999.90;;;999.90;;
18778;SDS011;9518;51.720;14.384;2023-06-05T06:46:51;1999.90;;;999.90;;
18778;SDS011;9518;51.720;14.384;2023-06-05T06:49:18;1999.90;;;999.90;;
18778;SDS011;9518;51.720;14.384;2023-06-05T06:51:48;1999.90;;;999.90;;
18778;SDS011;9518;51.720;14.384;2023-06-05T06:54:15;1999.90;;;999.90;;
18778;SDS011;9518;51.720;14.384;2023-06-05T06:56:43;1999.90;;;999.90;;
18778;SDS011;9518;51.720;14.384;2023-06-05T06:59:10;1999.90;;;999.90;;
18778;SDS011;9518;51.720;14.384;2023-06-05T07:01:42;1999.90;;;999.90;;
18778;SDS011;9518;51.720;14.384;2023-06-05T07:04:12;1999.90;;;999.90;;
18778;SDS011;9518;51.720;14.384;2023-06-05T07:06:42;1999.90;;;999.90;;
18778;SDS011;9518;51.720;14.384;2023-06-05T07:09:11;1999.90;;;999.90;;
18778;SDS011;9518;51.720;14.384;2023-06-05T07:11:39;1999.90;;;999.90;;
18778;SDS011;9518;51.720;14.384;2023-06-05T07:14:06;1999.90;;;999.90;;
18778;SDS011;9518;51.720;14.384;2023-06-05T07:16:34;1999.90;;;999.90;;
18778;SDS011;9518;51.720;14.384;2023-06-05T07:19:02;1999.90;;;999.90;;
18778;SDS011;9518;51.720;14.384;2023-06-05T07:21:29;1999.90;;;999.90;;
18778;SDS011;9518;51.720;14.384;2023-06-05T07:23:59;1999.90;;;999.90;;
18778;SDS011;9518;51.720;14.384;2023-06-05T07:26:30;1999.90;;;999.90;;
18778;SDS011;9518;51.720;14.384;2023-06-05T07:28:57;1999.90;;;999.90;;
18778;SDS011;9518;51.720;14.384;2023-06-05T07:31:25;1999.90;;;999.90;;
18778;SDS011;9518;51.720;14.384;2023-06-05T07:33:52;1999.90;;;999.90;;
18778;SDS011;9518;51.720;14.384;2023-06-05T07:36:19;1999.90;;;999.90;;
18778;SDS011;9518;51.720;14.384;2023-06-05T07:38:47;1999.90;;;999.90;;
18778;SDS011;9518;51.720;14.384;2023-06-05T07:41:14;1999.90;;;999.90;;
18778;SDS011;9518;51.720;14.384;2023-06-05T07:43:43;1999.90;;;999.90;;
18778;SDS011;9518;51.720;14.384;2023-06-05T07:46:10;1999.90;;;999.90;;
18778;SDS011;9518;51.720;14.384;2023-06-05T07:48:39;1999.90;;;999.90;;
18778;SDS011;9518;51.720;14.384;2023-06-05T07:51:09;1999.90;;;999.90;;
18778;SDS011;9518;51.720;14.384;2023-06-05T07:53:36;1999.90;;;999.90;;
18778;SDS011;9518;51.720;14.384;2023-06-05T07:56:03;1999.90;;;999.90;;
18778;SDS011;9518;51.720;14.384;2023-06-05T07:58:30;1999.90;;;999.90;;
18778;SDS011;9518;51.720;14.384;2023-06-05T08:01:01;1999.90;;;999.90;;
18778;SDS011;9518;51.720;14.384;2023-06-05T08:03:32;1999.90;;;999.90;;
18778;SDS011;9518;51.720;14.384;2023-06-05T08:05:59;1999.90;;;999.90;;
18778;SDS011;9518;51.720;14.384;2023-06-05T08:08:27;1999.90;;;999.90;;
18778;SDS011;9518;51.720;14.384;2023-06-05T08:10:55;1999.90;;;999.90;;
18778;SDS011;9518;51.720;14.384;2023-06-05T08:13:22;1999.90;;;999.90;;
18778;SDS011;9518;51.720;14.384;2023-06-05T08:15:49;1999.90;;;999.90;;
18778;SDS011;9518;51.720;14.384;2023-06-05T08:18:18;1999.90;;;999.90;;
18778;SDS011;9518;51.720;14.384;2023-06-05T08:20:46;1999.90;;;999.90;;
18778;SDS011;9518;51.720;14.384;2023-06-05T08:23:13;1534.47;;;782.90;;
18778;SDS011;9518;51.720;14.384;2023-06-05T08:25:42;137.70;;;131.40;;
18778;SDS011;9518;51.720;14.384;2023-06-05T08:28:09;93.78;;;89.22;;
18778;SDS011;9518;51.720;14.384;2023-06-05T08:30:37;77.03;;;73.45;;
18778;SDS011;9518;51.720;14.384;2023-06-05T08:33:04;65.85;;;62.75;;
18778;SDS011;9518;51.720;14.384;2023-06-05T08:35:33;44.25;;;42.15;;
18778;SDS011;9518;51.720;14.384;2023-06-05T08:38:00;46.00;;;43.78;;
18778;SDS011;9518;51.720;14.384;2023-06-05T08:40:28;45.75;;;43.45;;
18778;SDS011;9518;51.720;14.384;2023-06-05T08:42:56;55.20;;;52.38;;
18778;SDS011;9518;51.720;14.384;2023-06-05T08:45:26;49.75;;;47.22;;
18778;SDS011;9518;51.720;14.384;2023-06-05T08:47:56;41.58;;;39.58;;
18778;SDS011;9518;51.720;14.384;2023-06-05T08:50:27;43.70;;;41.60;;
18778;SDS011;9518;51.720;14.384;2023-06-05T08:52:58;64.85;;;61.38;;
18778;SDS011;9518;51.720;14.384;2023-06-05T08:55:26;247.85;;;236.43;;
18778;SDS011;9518;51.720;14.384;2023-06-05T08:57:54;234.55;;;223.82;;
18778;SDS011;9518;51.720;14.384;2023-06-05T09:00:21;194.65;;;185.57;;
18778;SDS011;9518;51.720;14.384;2023-06-05T09:02:49;207.63;;;198.20;;
18778;SDS011;9518;51.720;14.384;2023-06-05T09:05:17;340.70;;;324.30;;
18778;SDS011;9518;51.720;14.384;2023-06-05T09:07:44;479.85;;;455.08;;
18778;SDS011;9518;51.720;14.384;2023-06-05T09:10:23;546.30;;;517.03;;
18778;SDS011;9518;51.720;14.384;2023-06-05T09:12:54;628.38;;;593.00;;
18778;SDS011;9518;51.720;14.384;2023-06-05T09:15:23;661.95;;;623.03;;
18778;SDS011;9518;51.720;14.384;2023-06-05T09:18:01;559.35;;;529.50;;
18778;SDS011;9518;51.720;14.384;2023-06-05T09:20:30;437.10;;;415.33;;
18778;SDS011;9518;51.720;14.384;2023-06-05T09:23:00;390.50;;;371.70;;
18778;SDS011;9518;51.720;14.384;2023-06-05T09:25:34;416.73;;;395.63;;
18778;SDS011;9518;51.720;14.384;2023-06-05T09:28:13;545.92;;;516.03;;
18778;SDS011;9518;51.720;14.384;2023-06-05T09:33:32;673.33;;;632.92;;
18778;SDS011;9518;51.720;14.384;2023-06-05T09:36:03;730.47;;;684.33;;
18778;SDS011;9518;51.720;14.384;2023-06-05T09:38:32;826.90;;;769.40;;
18778;SDS011;9518;51.720;14.384;2023-06-05T09:41:03;847.13;;;786.90;;
18778;SDS011;9518;51.720;14.384;2023-06-05T09:43:33;810.83;;;754.83;;
18778;SDS011;9518;51.720;14.384;2023-06-05T09:46:08;1383.43;;;853.50;;
18778;SDS011;9518;51.720;14.384;2023-06-05T09:48:37;1999.90;;;999.90;;
18778;SDS011;9518;51.720;14.384;2023-06-05T09:51:08;1999.90;;;999.90;;
18778;SDS011;9518;51.720;14.384;2023-06-05T09:53:38;1999.90;;;999.90;;
18778;SDS011;9518;51.720;14.384;2023-06-05T09:56:11;1999.90;;;999.90;;
18778;SDS011;9518;51.720;14.384;2023-06-05T09:58:40;1999.90;;;999.90;;
18778;SDS011;9518;51.720;14.384;2023-06-05T10:01:13;1633.28;;;871.33;;
18778;SDS011;9518;51.720;14.384;2023-06-05T10:03:44;1999.90;;;999.90;;
18778;SDS011;9518;51.720;14.384;2023-06-05T10:06:15;1999.90;;;999.90;;
18778;SDS011;9518;51.720;14.384;2023-06-05T10:08:49;1999.90;;;999.90;;
18778;SDS011;9518;51.720;14.384;2023-06-05T10:11:19;1999.90;;;999.90;;
18778;SDS011;9518;51.720;14.384;2023-06-05T10:13:48;1999.90;;;999.90;;
18778;SDS011;9518;51.720;14.384;2023-06-05T10:16:16;1999.90;;;999.90;;
18778;SDS011;9518;51.720;14.384;2023-06-05T10:18:45;1999.90;;;999.90;;
18778;SDS011;9518;51.720;14.384;2023-06-05T10:21:14;1999.90;;;999.90;;
18778;SDS011;9518;51.720;14.384;2023-06-05T10:23:42;1999.90;;;999.90;;
18778;SDS011;9518;51.720;14.384;2023-06-05T10:26:15;1999.90;;;999.90;;
18778;SDS011;9518;51.720;14.384;2023-06-05T10:28:59;1999.90;;;999.90;;
18778;SDS011;9518;51.720;14.384;2023-06-05T10:31:42;1999.90;;;999.90;;
18778;SDS011;9518;51.720;14.384;2023-06-05T10:34:21;1999.90;;;999.90;;
18778;SDS011;9518;51.720;14.384;2023-06-05T10:37:15;1999.90;;;999.90;;
18778;SDS011;9518;51.720;14.384;2023-06-05T10:39:56;1999.90;;;999.90;;
18778;SDS011;9518;51.720;14.384;2023-06-05T10:42:26;1999.90;;;999.90;;
18778;SDS011;9518;51.720;14.384;2023-06-05T10:44:54;1999.90;;;999.90;;
18778;SDS011;9518;51.720;14.384;2023-06-05T10:50:21;1999.90;;;999.90;;
18778;SDS011;9518;51.720;14.384;2023-06-05T10:52:54;1999.90;;;999.90;;
18778;SDS011;9518;51.720;14.384;2023-06-05T10:55:23;1999.90;;;999.90;;
18778;SDS011;9518;51.720;14.384;2023-06-05T10:58:06;1999.90;;;999.90;;
18778;SDS011;9518;51.720;14.384;2023-06-05T11:00:39;1999.90;;;999.90;;
18778;SDS011;9518;51.720;14.384;2023-06-05T11:03:55;1999.90;;;999.90;;
18778;SDS011;9518;51.720;14.384;2023-06-05T11:06:23;1999.90;;;999.90;;
18778;SDS011;9518;51.720;14.384;2023-06-05T11:09:10;1999.90;;;999.90;;
18778;SDS011;9518;51.720;14.384;2023-06-05T11:11:55;1999.90;;;999.90;;
18778;SDS011;9518;51.720;14.384;2023-06-05T11:14:25;1999.90;;;999.90;;
18778;SDS011;9518;51.720;14.384;2023-06-05T11:17:27;1999.90;;;999.90;;
18778;SDS011;9518;51.720;14.384;2023-06-05T11:19:55;1999.90;;;999.90;;
18778;SDS011;9518;51.720;14.384;2023-06-05T11:22:23;1999.90;;;999.90;;
18778;SDS011;9518;51.720;14.384;2023-06-05T11:27:53;1999.90;;;999.90;;
18778;SDS011;9518;51.720;14.384;2023-06-05T11:30:27;1999.90;;;999.90;;
18778;SDS011;9518;51.720;14.384;2023-06-05T11:32:57;1999.90;;;999.90;;
18778;SDS011;9518;51.720;14.384;2023-06-05T11:35:34;1999.90;;;999.90;;
18778;SDS011;9518;51.720;14.384;2023-06-05T11:38:08;1999.90;;;999.90;;
18778;SDS011;9518;51.720;14.384;2023-06-05T11:40:36;1999.90;;;999.90;;
18778;SDS011;9518;51.720;14.384;2023-06-05T11:43:04;1999.90;;;999.90;;
18778;SDS011;9518;51.720;14.384;2023-06-05T11:45:34;1999.90;;;999.90;;
18778;SDS011;9518;51.720;14.384;2023-06-05T11:48:06;1999.90;;;999.90;;
18778;SDS011;9518;51.720;14.384;2023-06-05T11:50:34;1999.90;;;999.90;;
18778;SDS011;9518;51.720;14.384;2023-06-05T11:53:05;1999.90;;;999.90;;
18778;SDS011;9518;51.720;14.384;2023-06-05T11:55:33;1999.90;;;999.90;;
18778;SDS011;9518;51.720;14.384;2023-06-05T11:58:22;1999.90;;;999.90;;
18778;SDS011;9518;51.720;14.384;2023-06-05T12:00:51;1999.90;;;999.90;;
18778;SDS011;9518;51.720;14.384;2023-06-05T12:03:32;1999.90;;;999.90;;
18778;SDS011;9518;51.720;14.384;2023-06-05T12:06:01;1999.90;;;999.90;;
18778;SDS011;9518;51.720;14.384;2023-06-05T12:08:29;1999.90;;;999.90;;
18778;SDS011;9518;51.720;14.384;2023-06-05T12:10:58;1999.90;;;999.90;;
18778;SDS011;9518;51.720;14.384;2023-06-05T12:13:45;1999.90;;;999.90;;
18778;SDS011;9518;51.720;14.384;2023-06-05T12:16:15;1999.90;;;999.90;;
18778;SDS011;9518;51.720;14.384;2023-06-05T12:18:43;1999.90;;;999.90;;
18778;SDS011;9518;51.720;14.384;2023-06-05T12:21:19;1999.90;;;999.90;;
18778;SDS011;9518;51.720;14.384;2023-06-05T12:23:48;1999.90;;;999.90;;
18778;SDS011;9518;51.720;14.384;2023-06-05T12:26:15;1999.90;;;999.90;;
18778;SDS011;9518;51.720;14.384;2023-06-05T12:28:44;1999.90;;;999.90;;
18778;SDS011;9518;51.720;14.384;2023-06-05T12:34:01;1611.28;;;999.90;;
18778;SDS011;9518;51.720;14.384;2023-06-05T12:36:30;1804.43;;;999.90;;
18778;SDS011;9518;51.720;14.384;2023-06-05T12:39:01;1999.90;;;999.90;;
18778;SDS011;9518;51.720;14.384;2023-06-05T12:41:32;1999.90;;;999.90;;
18778;SDS011;9518;51.720;14.384;2023-06-05T12:44:00;1999.90;;;999.90;;
18778;SDS011;9518;51.720;14.384;2023-06-05T12:46:29;1128.82;;;997.75;;
18778;SDS011;9518;51.720;14.384;2023-06-05T12:48:58;1553.93;;;999.90;;
18778;SDS011;9518;51.720;14.384;2023-06-05T12:51:26;1601.45;;;962.05;;
18778;SDS011;9518;51.720;14.384;2023-06-05T12:53:57;1999.90;;;999.90;;
18778;SDS011;9518;51.720;14.384;2023-06-05T12:56:24;1632.80;;;999.90;;
18778;SDS011;9518;51.720;14.384;2023-06-05T12:58:54;1766.18;;;999.90;;
18778;SDS011;9518;51.720;14.384;2023-06-05T13:01:22;1427.75;;;999.90;;
18778;SDS011;9518;51.720;14.384;2023-06-05T13:03:50;1646.25;;;999.90;;
18778;SDS011;9518;51.720;14.384;2023-06-05T13:06:19;1721.30;;;999.90;;
18778;SDS011;9518;51.720;14.384;2023-06-05T13:08:47;1693.60;;;999.90;;
18778;SDS011;9518;51.720;14.384;2023-06-05T13:11:14;1120.07;;;995.15;;
18778;SDS011;9518;51.720;14.384;2023-06-05T13:13:41;1514.85;;;999.90;;
18778;SDS011;9518;51.720;14.384;2023-06-05T13:16:09;1634.75;;;999.90;;
18778;SDS011;9518;51.720;14.384;2023-06-05T13:18:37;1550.72;;;999.90;;
18778;SDS011;9518;51.720;14.384;2023-06-05T13:21:04;1641.50;;;999.90;;
18778;SDS011;9518;51.720;14.384;2023-06-05T13:23:33;1523.18;;;999.90;;
18778;SDS011;9518;51.720;14.384;2023-06-05T13:26:00;1509.10;;;999.90;;
18778;SDS011;9518;51.720;14.384;2023-06-05T13:28:29;1100.47;;;981.80;;
18778;SDS011;9518;51.720;14.384;2023-06-05T13:30:56;966.92;;;886.75;;
18778;SDS011;9518;51.720;14.384;2023-06-05T13:33:23;1091.75;;;981.80;;
18778;SDS011;9518;51.720;14.384;2023-06-05T13:35:51;1100.93;;;976.67;;
18778;SDS011;9518;51.720;14.384;2023-06-05T13:38:19;1017.33;;;928.45;;
18778;SDS011;9518;51.720;14.384;2023-06-05T13:40:48;704.28;;;661.03;;
18778;SDS011;9518;51.720;14.384;2023-06-05T13:43:17;885.58;;;819.90;;
18778;SDS011;9518;51.720;14.384;2023-06-05T13:45:44;828.30;;;771.20;;
18778;SDS011;9518;51.720;14.384;2023-06-05T13:48:12;556.45;;;524.63;;
18778;SDS011;9518;51.720;14.384;2023-06-05T13:50:43;145.98;;;137.82;;
18778;SDS011;9518;51.720;14.384;2023-06-05T13:53:10;78.25;;;74.10;;
18778;SDS011;9518;51.720;14.384;2023-06-05T13:55:37;159.50;;;151.93;;
18778;SDS011;9518;51.720;14.384;2023-06-05T13:58:06;62.10;;;58.78;;
18778;SDS011;9518;51.720;14.384;2023-06-05T14:00:34;82.38;;;78.13;;
18778;SDS011;9518;51.720;14.384;2023-06-05T14:03:04;159.90;;;152.25;;
18778;SDS011;9518;51.720;14.384;2023-06-05T14:05:32;142.68;;;135.95;;
18778;SDS011;9518;51.720;14.384;2023-06-05T14:07:59;151.20;;;143.75;;
18778;SDS011;9518;51.720;14.384;2023-06-05T14:10:27;182.15;;;173.68;;
18778;SDS011;9518;51.720;14.384;2023-06-05T14:12:54;156.38;;;148.95;;